Time;durP1;ratioP1;P1;durP2;ratioP2;P2;SDS_P1;SDS_P2;PMS_P1;PMS_P2;Temp;Humidity;BMP_temperature;BMP_pressure;BME280_temperature;BME280_humidity;BME280_pressure;Samples;Min_cycle;Max_cycle;Signal;HPM_P1;HPM_P2
2021/05/28 00:01:38;;;;;;;29.65;10.23;;;;;;;;;;5022706;28;20022;-64
2021/05/28 00:04:06;;;;;;;24.23;9.55;;;;;;;;;;5029406;28;20141;-64
2021/05/28 00:06:32;;;;;;;25.58;10.65;;;;;;;;;;5025230;28;20381;-64
2021/05/28 00:08:58;;;;;;;24.00;9.88;;;;;;;;;;5017895;28;20469;-64
2021/05/28 00:11:24;;;;;;;19.58;10.13;;;;;;;;;;5027711;28;20073;-64
2021/05/28 00:13:51;;;;;;;27.42;10.55;;;;;;;;;;5016865;28;20572;-64
2021/05/28 00:16:17;;;;;;;25.17;10.90;;;;;;;;;;5028571;28;20079;-65
2021/05/28 00:18:43;;;;;;;25.25;11.05;;;;;;;;;;5029656;28;20100;-64
2021/05/28 00:21:09;;;;;;;20.65;10.35;;;;;;;;;;5028270;28;20445;-64
2021/05/28 00:23:35;;;;;;;27.83;10.45;;;;;;;;;;5006632;28;20072;-65
2021/05/28 00:26:01;;;;;;;20.10;8.82;;;;;;;;;;5029940;28;20033;-64
2021/05/28 00:28:27;;;;;;;24.45;10.27;;;;;;;;;;5030848;28;20481;-63
2021/05/28 00:30:53;;;;;;;21.17;10.75;;;;;;;;;;5027320;28;20481;-63
2021/05/28 00:33:19;;;;;;;22.77;11.30;;;;;;;;;;5027022;28;20022;-64
2021/05/28 00:35:45;;;;;;;23.88;10.45;;;;;;;;;;5020599;28;20022;-63
2021/05/28 00:38:11;;;;;;;23.65;11.45;;;;;;;;;;5024307;28;20037;-63
2021/05/28 00:40:37;;;;;;;22.05;10.40;;;;;;;;;;5021284;28;20057;-64
2021/05/28 00:43:03;;;;;;;26.00;11.93;;;;;;;;;;5026952;28;20103;-63
2021/05/28 00:45:30;;;;;;;28.05;11.25;;;;;;;;;;5031034;28;20022;-63
2021/05/28 00:47:56;;;;;;;22.10;10.15;;;;;;;;;;5031731;28;20029;-64
2021/05/28 00:50:22;;;;;;;22.15;10.90;;;;;;;;;;5030751;28;20030;-63
2021/05/28 00:52:49;;;;;;;27.83;11.23;;;;;;;;;;5009575;28;20033;-64
2021/05/28 00:55:15;;;;;;;27.75;11.02;;;;;;;;;;5026443;28;20056;-64
2021/05/28 00:57:42;;;;;;;25.60;10.60;;;;;;;;;;5010251;28;20077;-64
2021/05/28 01:00:09;;;;;;;24.02;10.30;;;;;;;;;;5014242;28;20022;-64
2021/05/28 01:02:35;;;;;;;20.52;10.30;;;;;;;;;;5012590;28;20048;-64
2021/05/28 01:05:01;;;;;;;23.50;11.07;;;;;;;;;;5026705;28;20036;-64
2021/05/28 01:07:27;;;;;;;29.50;11.30;;;;;;;;;;5030192;28;20068;-64
2021/05/28 01:09:53;;;;;;;23.20;11.30;;;;;;;;;;4982462;28;20082;-64
2021/05/28 01:12:19;;;;;;;28.45;11.27;;;;;;;;;;4968623;28;20054;-64
2021/05/28 01:14:45;;;;;;;21.33;10.25;;;;;;;;;;4984310;28;20507;-64
2021/05/28 01:17:11;;;;;;;28.88;11.48;;;;;;;;;;4983153;28;20030;-64
2021/05/28 01:19:37;;;;;;;21.40;10.80;;;;;;;;;;4987538;28;20042;-65
2021/05/28 01:22:07;;;;;;;21.60;11.10;;;;;;;;;;4985887;28;20648;-64
2021/05/28 01:24:33;;;;;;;23.20;11.15;;;;;;;;;;4981403;28;20031;-64
2021/05/28 01:26:59;;;;;;;21.85;10.60;;;;;;;;;;4982005;28;20026;-64
2021/05/28 01:29:26;;;;;;;25.80;11.20;;;;;;;;;;4987937;28;20466;-64
2021/05/28 01:31:52;;;;;;;24.67;11.75;;;;;;;;;;4980897;28;20038;-63
2021/05/28 01:34:18;;;;;;;23.73;10.80;;;;;;;;;;4981374;28;20466;-64
2021/05/28 01:36:44;;;;;;;23.30;10.88;;;;;;;;;;4987347;28;20039;-63
2021/05/28 01:39:11;;;;;;;29.55;11.80;;;;;;;;;;4982766;28;20038;-63
2021/05/28 01:41:37;;;;;;;28.08;11.30;;;;;;;;;;4993923;28;20041;-64
2021/05/28 01:44:10;;;;;;;27.17;11.57;;;;;;;;;;5019099;28;20034;-63
2021/05/28 01:46:37;;;;;;;26.60;11.30;;;;;;;;;;5024694;28;20026;-63
2021/05/28 01:49:04;;;;;;;24.65;11.50;;;;;;;;;;5032918;28;20037;-63
2021/05/28 01:51:30;;;;;;;25.55;10.65;;;;;;;;;;5026238;28;20042;-64
2021/05/28 01:53:56;;;;;;;27.55;11.60;;;;;;;;;;5027766;28;20029;-63
2021/05/28 01:56:23;;;;;;;23.17;11.10;;;;;;;;;;5000632;28;20457;-63
2021/05/28 01:58:49;;;;;;;23.27;11.07;;;;;;;;;;5018049;28;20022;-63
2021/05/28 02:01:15;;;;;;;25.73;10.77;;;;;;;;;;5009173;28;20097;-64
2021/05/28 02:03:41;;;;;;;25.10;12.18;;;;;;;;;;5024842;28;20445;-64
2021/05/28 02:06:07;;;;;;;23.33;11.18;;;;;;;;;;5019485;28;20655;-63
2021/05/28 02:08:33;;;;;;;24.08;10.82;;;;;;;;;;5025717;28;20022;-63
2021/05/28 02:10:59;;;;;;;30.70;12.13;;;;;;;;;;5021099;28;20030;-64
2021/05/28 02:13:25;;;;;;;27.92;11.60;;;;;;;;;;4999998;28;20033;-64
2021/05/28 02:15:51;;;;;;;22.20;11.57;;;;;;;;;;5025941;28;20025;-64
2021/05/28 02:18:17;;;;;;;24.40;10.52;;;;;;;;;;5023662;28;20037;-62
2021/05/28 02:20:43;;;;;;;23.75;10.75;;;;;;;;;;5026205;28;20417;-64
2021/05/28 02:23:09;;;;;;;23.23;10.35;;;;;;;;;;5021445;28;20462;-64
2021/05/28 02:25:35;;;;;;;22.55;11.50;;;;;;;;;;5016355;28;20417;-63
2021/05/28 02:28:01;;;;;;;33.08;11.95;;;;;;;;;;5025603;28;20039;-63
2021/05/28 02:30:27;;;;;;;21.00;10.90;;;;;;;;;;5021087;28;20038;-63
2021/05/28 02:32:53;;;;;;;30.75;12.20;;;;;;;;;;5023755;28;20025;-65
2021/05/28 02:35:19;;;;;;;32.58;12.43;;;;;;;;;;5018650;28;20037;-63
2021/05/28 02:37:46;;;;;;;24.98;12.05;;;;;;;;;;5008754;28;20084;-64
2021/05/28 02:40:12;;;;;;;27.17;12.57;;;;;;;;;;5021159;28;20028;-63
2021/05/28 02:42:38;;;;;;;26.65;12.25;;;;;;;;;;5022337;28;20029;-63
2021/05/28 02:45:06;;;;;;;23.77;12.27;;;;;;;;;;5023729;28;20436;-63
2021/05/28 02:47:32;;;;;;;25.95;11.30;;;;;;;;;;5024622;28;20033;-63
2021/05/28 02:49:59;;;;;;;25.05;11.63;;;;;;;;;;5030436;28;20041;-63
2021/05/28 02:52:25;;;;;;;32.00;13.43;;;;;;;;;;5018971;28;20029;-63
2021/05/28 02:54:51;;;;;;;32.03;13.15;;;;;;;;;;5026679;28;20397;-63
2021/05/28 02:57:17;;;;;;;30.48;13.07;;;;;;;;;;5014248;28;20071;-63
2021/05/28 02:59:43;;;;;;;24.75;11.98;;;;;;;;;;5025471;28;20025;-63
2021/05/28 03:02:09;;;;;;;26.55;11.85;;;;;;;;;;5020957;28;20018;-64
2021/05/28 03:04:37;;;;;;;26.85;12.50;;;;;;;;;;5029206;28;20048;-63
2021/05/28 03:07:03;;;;;;;26.70;12.38;;;;;;;;;;5015344;28;20068;-63
2021/05/28 03:09:29;;;;;;;25.05;13.30;;;;;;;;;;5031249;28;20025;-63
2021/05/28 03:11:55;;;;;;;28.80;12.20;;;;;;;;;;5019816;28;20029;-63
2021/05/28 03:14:21;;;;;;;27.85;12.52;;;;;;;;;;5028904;28;20116;-62
2021/05/28 03:16:47;;;;;;;24.75;12.60;;;;;;;;;;5024610;28;20044;-63
2021/05/28 03:19:40;;;;;;;28.50;13.02;;;;;;;;;;5030188;28;20021;-63
2021/05/28 03:24:48;;;;;;;28.23;13.02;;;;;;;;;;5026551;28;20048;-63
2021/05/28 03:27:14;;;;;;;29.83;13.40;;;;;;;;;;5024237;28;20037;-63
2021/05/28 03:29:40;;;;;;;29.95;13.82;;;;;;;;;;5022988;28;20009;-63
2021/05/28 03:32:06;;;;;;;31.05;13.05;;;;;;;;;;5025171;28;20033;-64
2021/05/28 03:34:32;;;;;;;25.73;13.25;;;;;;;;;;5021802;28;20030;-63
2021/05/28 03:36:59;;;;;;;26.90;12.95;;;;;;;;;;5014128;28;20026;-64
2021/05/28 03:39:25;;;;;;;28.35;12.32;;;;;;;;;;5025994;28;20045;-64
2021/05/28 03:41:51;;;;;;;25.85;11.93;;;;;;;;;;5015765;28;20021;-64
2021/05/28 03:44:17;;;;;;;25.23;12.55;;;;;;;;;;5012784;28;20072;-64
2021/05/28 03:46:43;;;;;;;26.38;11.85;;;;;;;;;;5014906;28;20081;-65
2021/05/28 03:49:09;;;;;;;27.30;12.25;;;;;;;;;;5014565;28;20025;-64
2021/05/28 03:51:35;;;;;;;27.38;13.50;;;;;;;;;;5014798;28;20088;-64
2021/05/28 03:54:01;;;;;;;28.77;13.35;;;;;;;;;;5017192;28;20087;-64
2021/05/28 03:56:27;;;;;;;30.08;13.95;;;;;;;;;;5013994;28;20054;-64
2021/05/28 03:58:53;;;;;;;32.67;14.27;;;;;;;;;;5021328;28;20029;-63
2021/05/28 04:01:19;;;;;;;26.00;13.77;;;;;;;;;;5021964;28;20393;-64
2021/05/28 04:03:46;;;;;;;33.30;14.68;;;;;;;;;;5013689;28;20025;-64
2021/05/28 04:06:12;;;;;;;36.25;16.27;;;;;;;;;;5012240;28;20069;-64
2021/05/28 04:08:38;;;;;;;32.05;15.50;;;;;;;;;;5015004;28;20028;-65
2021/05/28 04:11:04;;;;;;;38.03;16.80;;;;;;;;;;5016497;28;20038;-63
2021/05/28 04:13:33;;;;;;;34.95;15.77;;;;;;;;;;4998527;28;20025;-64
2021/05/28 04:16:00;;;;;;;32.13;14.85;;;;;;;;;;4998603;28;20018;-64
2021/05/28 04:18:26;;;;;;;37.60;17.38;;;;;;;;;;5020545;28;20064;-64
2021/05/28 04:20:52;;;;;;;35.58;16.67;;;;;;;;;;5007295;28;20620;-64
2021/05/28 04:23:19;;;;;;;40.78;16.58;;;;;;;;;;5001020;28;20386;-64
2021/05/28 04:25:48;;;;;;;37.88;17.92;;;;;;;;;;5022138;28;20028;-65
2021/05/28 04:28:15;;;;;;;30.47;15.47;;;;;;;;;;5016779;28;20115;-64
2021/05/28 04:30:41;;;;;;;40.75;15.05;;;;;;;;;;4999624;28;20132;-63
2021/05/28 04:33:07;;;;;;;40.72;16.48;;;;;;;;;;5014891;28;20014;-63
2021/05/28 04:35:34;;;;;;;44.67;18.27;;;;;;;;;;5022890;28;20042;-64
2021/05/28 04:38:00;;;;;;;35.60;16.92;;;;;;;;;;5012542;28;20054;-63
2021/05/28 04:40:31;;;;;;;35.10;15.85;;;;;;;;;;5025952;28;20405;-62
2021/05/28 04:42:57;;;;;;;41.60;17.45;;;;;;;;;;5011996;28;20025;-63
2021/05/28 04:45:23;;;;;;;37.55;15.77;;;;;;;;;;5014019;28;20032;-62
2021/05/28 04:47:49;;;;;;;38.85;15.77;;;;;;;;;;5021123;28;20060;-63
2021/05/28 04:50:16;;;;;;;34.40;15.52;;;;;;;;;;5020458;28;20022;-63
2021/05/28 04:52:42;;;;;;;36.40;16.98;;;;;;;;;;5010943;28;20061;-63
2021/05/28 04:55:09;;;;;;;34.17;15.73;;;;;;;;;;5022264;28;20038;-63
2021/05/28 04:57:35;;;;;;;38.55;15.32;;;;;;;;;;5030368;28;20033;-62
2021/05/28 05:00:01;;;;;;;29.50;14.50;;;;;;;;;;5026753;28;20436;-62
2021/05/28 05:02:27;;;;;;;26.90;12.98;;;;;;;;;;5016620;28;20040;-63
2021/05/28 05:04:53;;;;;;;16.13;8.10;;;;;;;;;;5011959;28;20037;-63
2021/05/28 05:07:19;;;;;;;32.53;12.25;;;;;;;;;;5012659;28;20026;-62
2021/05/28 05:09:45;;;;;;;31.95;13.10;;;;;;;;;;5013864;28;20022;-64
2021/05/28 05:12:11;;;;;;;29.75;14.35;;;;;;;;;;5023297;28;20077;-63
2021/05/28 05:14:37;;;;;;;34.28;14.07;;;;;;;;;;5022409;28;20026;-63
2021/05/28 05:17:03;;;;;;;28.92;13.45;;;;;;;;;;5013676;28;20032;-64
2021/05/28 05:19:29;;;;;;;39.05;16.23;;;;;;;;;;5011208;28;20037;-63
2021/05/28 05:21:57;;;;;;;31.65;13.23;;;;;;;;;;5017831;28;20032;-63
2021/05/28 05:24:23;;;;;;;30.55;15.02;;;;;;;;;;5019002;28;20045;-63
2021/05/28 05:26:49;;;;;;;29.90;13.70;;;;;;;;;;5023788;28;20390;-63
2021/05/28 05:29:16;;;;;;;32.15;12.98;;;;;;;;;;5022293;28;20021;-63
2021/05/28 05:31:42;;;;;;;29.77;14.43;;;;;;;;;;5012072;28;20042;-65
2021/05/28 05:34:08;;;;;;;35.78;14.20;;;;;;;;;;5010506;28;20037;-64
2021/05/28 05:36:39;;;;;;;32.25;14.82;;;;;;;;;;5011924;28;20028;-65
2021/05/28 05:39:05;;;;;;;32.47;14.20;;;;;;;;;;4993287;28;20049;-65
2021/05/28 05:41:31;;;;;;;31.73;15.88;;;;;;;;;;5017943;28;20034;-65
2021/05/28 05:43:57;;;;;;;23.35;6.13;;;;;;;;;;5009621;28;20088;-65
2021/05/28 05:46:23;;;;;;;24.98;9.95;;;;;;;;;;5014477;28;20036;-64
2021/05/28 05:48:49;;;;;;;24.00;10.43;;;;;;;;;;5021835;28;20362;-64
2021/05/28 05:51:15;;;;;;;24.08;10.98;;;;;;;;;;5021434;28;20035;-64
2021/05/28 05:53:41;;;;;;;28.63;12.35;;;;;;;;;;5026954;28;20063;-65
2021/05/28 05:56:07;;;;;;;29.60;12.13;;;;;;;;;;5025000;28;20242;-63
2021/05/28 05:58:33;;;;;;;28.88;14.07;;;;;;;;;;5019984;28;20049;-64
2021/05/28 06:00:59;;;;;;;32.72;14.38;;;;;;;;;;5014355;28;20029;-65
2021/05/28 06:03:25;;;;;;;30.20;13.23;;;;;;;;;;5013630;28;20041;-64
2021/05/28 06:05:51;;;;;;;35.88;14.00;;;;;;;;;;5016028;28;20470;-65
2021/05/28 06:08:17;;;;;;;31.05;13.05;;;;;;;;;;5011655;28;20029;-64
2021/05/28 06:10:43;;;;;;;26.00;10.82;;;;;;;;;;5016044;28;20044;-64
2021/05/28 06:13:09;;;;;;;26.10;12.35;;;;;;;;;;5020300;28;20029;-64
2021/05/28 06:15:36;;;;;;;25.00;11.63;;;;;;;;;;5016078;28;20071;-65
2021/05/28 06:18:02;;;;;;;25.98;11.88;;;;;;;;;;5010958;28;20036;-64
2021/05/28 06:20:29;;;;;;;24.05;10.85;;;;;;;;;;4992346;28;20504;-64
2021/05/28 06:22:57;;;;;;;24.08;11.23;;;;;;;;;;5015247;28;20505;-65
2021/05/28 06:25:23;;;;;;;23.35;11.35;;;;;;;;;;5025254;28;20159;-65
2021/05/28 06:27:49;;;;;;;23.95;11.20;;;;;;;;;;5015965;28;20127;-64
2021/05/28 06:30:16;;;;;;;25.65;11.45;;;;;;;;;;5008904;28;20021;-64
2021/05/28 06:32:42;;;;;;;24.17;10.93;;;;;;;;;;5022643;28;20435;-65
2021/05/28 06:35:08;;;;;;;26.88;11.82;;;;;;;;;;5024043;28;20406;-64
2021/05/28 06:37:34;;;;;;;27.25;11.52;;;;;;;;;;5020105;28;20033;-65
2021/05/28 06:40:00;;;;;;;25.42;12.02;;;;;;;;;;5018648;28;20018;-65
2021/05/28 06:42:26;;;;;;;24.05;10.68;;;;;;;;;;5021383;28;20043;-64
2021/05/28 06:44:52;;;;;;;20.25;8.95;;;;;;;;;;5023679;28;20017;-64
2021/05/28 06:47:18;;;;;;;21.95;9.70;;;;;;;;;;5026517;28;20029;-65
2021/05/28 06:49:44;;;;;;;16.42;5.93;;;;;;;;;;5031607;28;20028;-64
2021/05/28 06:52:11;;;;;;;19.38;9.15;;;;;;;;;;5024097;28;20498;-64
2021/05/28 06:54:37;;;;;;;18.23;9.52;;;;;;;;;;5020174;28;20059;-65
2021/05/28 06:57:03;;;;;;;23.75;9.38;;;;;;;;;;5018178;28;20044;-65
2021/05/28 06:59:30;;;;;;;18.92;9.30;;;;;;;;;;5024583;28;20041;-67
2021/05/28 07:01:56;;;;;;;18.45;8.10;;;;;;;;;;5029108;28;20064;-65
2021/05/28 07:04:22;;;;;;;16.83;7.28;;;;;;;;;;5021363;28;20200;-66
2021/05/28 07:06:48;;;;;;;21.05;8.85;;;;;;;;;;5018750;28;20486;-65
2021/05/28 07:09:14;;;;;;;19.70;9.30;;;;;;;;;;5021969;28;20133;-65
2021/05/28 07:11:40;;;;;;;21.45;9.15;;;;;;;;;;5023217;28;20076;-66
2021/05/28 07:14:06;;;;;;;18.02;8.15;;;;;;;;;;5006670;28;20021;-65
2021/05/28 07:16:33;;;;;;;19.58;8.52;;;;;;;;;;5006987;28;20440;-66
2021/05/28 07:18:59;;;;;;;19.60;8.00;;;;;;;;;;5022039;28;20175;-65
2021/05/28 07:21:26;;;;;;;23.85;9.73;;;;;;;;;;5022497;28;20033;-65
2021/05/28 07:23:52;;;;;;;20.75;9.20;;;;;;;;;;5004035;28;20539;-66
2021/05/28 07:26:18;;;;;;;22.10;9.63;;;;;;;;;;5023315;28;20029;-65
2021/05/28 07:28:44;;;;;;;16.27;8.52;;;;;;;;;;5007030;28;20029;-65
2021/05/28 07:31:10;;;;;;;18.35;9.30;;;;;;;;;;5021470;28;20029;-66
2021/05/28 07:33:37;;;;;;;17.65;8.73;;;;;;;;;;5021615;28;20041;-65
2021/05/28 07:36:03;;;;;;;20.77;9.95;;;;;;;;;;5002855;28;20543;-65
2021/05/28 07:38:30;;;;;;;19.77;11.13;;;;;;;;;;5005137;28;20163;-65
2021/05/28 07:40:56;;;;;;;20.33;10.68;;;;;;;;;;5004428;28;20041;-66
2021/05/28 07:43:23;;;;;;;17.70;8.65;;;;;;;;;;5023913;28;20473;-65
2021/05/28 07:45:50;;;;;;;24.55;12.43;;;;;;;;;;5024252;28;20848;-65
2021/05/28 07:48:17;;;;;;;21.35;11.23;;;;;;;;;;5003619;28;20079;-66
2021/05/28 07:50:47;;;;;;;31.73;11.23;;;;;;;;;;5028163;28;20028;-65
2021/05/28 07:53:17;;;;;;;20.50;9.63;;;;;;;;;;5024324;28;20067;-64
2021/05/28 07:55:43;;;;;;;22.20;11.65;;;;;;;;;;5024459;28;20557;-65
2021/05/28 07:58:11;;;;;;;18.65;9.02;;;;;;;;;;5027627;28;20389;-65
2021/05/28 08:00:37;;;;;;;24.08;11.88;;;;;;;;;;5027481;28;20017;-64
2021/05/28 08:03:03;;;;;;;20.58;10.63;;;;;;;;;;4993504;28;20405;-65
2021/05/28 08:05:31;;;;;;;22.73;11.07;;;;;;;;;;5027114;28;20032;-65
2021/05/28 08:07:59;;;;;;;23.40;12.00;;;;;;;;;;5027000;28;20060;-65
2021/05/28 08:10:25;;;;;;;14.95;7.18;;;;;;;;;;5026245;28;20087;-64
2021/05/28 08:12:51;;;;;;;19.20;10.77;;;;;;;;;;5028021;28;20036;-65
2021/05/28 08:15:18;;;;;;;24.48;11.80;;;;;;;;;;5026802;28;20115;-64
2021/05/28 08:17:44;;;;;;;19.15;8.85;;;;;;;;;;5027732;28;20041;-65
2021/05/28 08:20:11;;;;;;;17.95;9.90;;;;;;;;;;5030811;28;20028;-65
2021/05/28 08:22:37;;;;;;;19.30;8.55;;;;;;;;;;5003774;28;20026;-65
2021/05/28 08:25:04;;;;;;;12.75;7.10;;;;;;;;;;5017672;28;20048;-65
2021/05/28 08:27:30;;;;;;;15.00;7.95;;;;;;;;;;4996799;28;20032;-64
2021/05/28 08:29:56;;;;;;;14.93;7.57;;;;;;;;;;5027000;28;20030;-65
2021/05/28 08:32:22;;;;;;;15.75;7.63;;;;;;;;;;5030140;28;20393;-65
2021/05/28 08:34:48;;;;;;;18.13;8.32;;;;;;;;;;5026209;28;20029;-65
2021/05/28 08:37:14;;;;;;;19.05;9.18;;;;;;;;;;5006741;28;20109;-65
2021/05/28 08:39:40;;;;;;;15.73;7.28;;;;;;;;;;5025782;28;20521;-64
2021/05/28 08:42:06;;;;;;;15.27;7.75;;;;;;;;;;5027262;28;20030;-65
2021/05/28 08:44:33;;;;;;;16.20;8.80;;;;;;;;;;5023569;28;20040;-65
2021/05/28 08:46:59;;;;;;;15.23;8.05;;;;;;;;;;5021696;28;20436;-65
2021/05/28 08:49:26;;;;;;;14.25;7.63;;;;;;;;;;5031446;28;20033;-65
2021/05/28 08:51:52;;;;;;;12.85;6.63;;;;;;;;;;5023971;28;20077;-66
2021/05/28 08:54:18;;;;;;;15.18;6.68;;;;;;;;;;5028070;28;20037;-66
2021/05/28 08:56:48;;;;;;;17.23;6.90;;;;;;;;;;5026633;28;20046;-65
2021/05/28 08:59:14;;;;;;;13.88;6.47;;;;;;;;;;5025532;28;20048;-65
2021/05/28 09:01:40;;;;;;;11.55;5.07;;;;;;;;;;5024467;28;20030;-65
2021/05/28 09:04:07;;;;;;;15.38;6.72;;;;;;;;;;5016437;28;20422;-65
2021/05/28 09:06:40;;;;;;;14.65;5.55;;;;;;;;;;5024788;28;20081;-65
2021/05/28 09:09:17;;;;;;;14.80;7.22;;;;;;;;;;5021155;28;21326;-66
2021/05/28 09:12:10;;;;;;;13.52;6.68;;;;;;;;;;5019900;28;20033;-65
2021/05/28 09:14:46;;;;;;;12.05;6.90;;;;;;;;;;5015330;28;20186;-65
2021/05/28 09:17:13;;;;;;;14.48;6.32;;;;;;;;;;5020489;28;20512;-65
2021/05/28 09:19:40;;;;;;;13.27;5.88;;;;;;;;;;5010827;28;20045;-65
2021/05/28 09:22:07;;;;;;;15.82;7.30;;;;;;;;;;5023564;28;20105;-65
2021/05/28 09:24:35;;;;;;;16.20;7.63;;;;;;;;;;5020474;28;20025;-65
2021/05/28 09:27:21;;;;;;;14.85;7.25;;;;;;;;;;4998679;28;20026;-65
2021/05/28 09:30:07;;;;;;;15.45;6.85;;;;;;;;;;5011237;28;20377;-64
2021/05/28 09:32:33;;;;;;;14.20;7.35;;;;;;;;;;5026526;28;20055;-64
2021/05/28 09:35:00;;;;;;;13.30;6.15;;;;;;;;;;5008308;28;20466;-64
2021/05/28 09:37:48;;;;;;;16.27;6.68;;;;;;;;;;5030950;28;20056;-64
2021/05/28 09:40:17;;;;;;;16.27;6.95;;;;;;;;;;5011284;28;20041;-64
2021/05/28 09:42:47;;;;;;;15.40;6.68;;;;;;;;;;5014809;28;20500;-64
2021/05/28 09:45:22;;;;;;;13.13;5.30;;;;;;;;;;5027688;28;20087;-64
2021/05/28 09:47:48;;;;;;;14.75;5.88;;;;;;;;;;5029967;28;20037;-64
2021/05/28 09:50:15;;;;;;;14.23;6.35;;;;;;;;;;5013672;28;20025;-64
2021/05/28 09:52:41;;;;;;;17.90;6.70;;;;;;;;;;5030020;28;20041;-64
2021/05/28 09:55:08;;;;;;;14.45;6.13;;;;;;;;;;5009488;28;20517;-66
2021/05/28 09:57:43;;;;;;;14.13;5.60;;;;;;;;;;5026967;28;20069;-66
2021/05/28 10:00:10;;;;;;;11.48;5.20;;;;;;;;;;5029902;28;20071;-66
2021/05/28 10:02:42;;;;;;;16.13;5.78;;;;;;;;;;5029602;28;20021;-66
2021/05/28 10:05:09;;;;;;;14.45;5.80;;;;;;;;;;5022808;28;20060;-66
2021/05/28 10:07:37;;;;;;;11.43;3.70;;;;;;;;;;5023042;28;20034;-66
2021/05/28 10:10:04;;;;;;;16.73;5.55;;;;;;;;;;5024858;28;20531;-66
2021/05/28 10:12:30;;;;;;;12.85;6.18;;;;;;;;;;5006910;28;20042;-66
2021/05/28 10:14:56;;;;;;;12.27;6.20;;;;;;;;;;5009691;28;20041;-66
2021/05/28 10:17:23;;;;;;;11.32;5.43;;;;;;;;;;5009894;28;20033;-66
2021/05/28 10:19:49;;;;;;;11.15;5.13;;;;;;;;;;5009860;28;20071;-67
2021/05/28 10:22:21;;;;;;;11.35;4.60;;;;;;;;;;5028039;28;20033;-66
2021/05/28 10:24:48;;;;;;;12.35;4.35;;;;;;;;;;5030051;28;20030;-66
2021/05/28 10:27:24;;;;;;;10.52;4.28;;;;;;;;;;5027055;28;20124;-66
2021/05/28 10:29:51;;;;;;;11.13;5.10;;;;;;;;;;5018585;28;20384;-65
2021/05/28 10:32:17;;;;;;;11.63;3.75;;;;;;;;;;5028073;28;20044;-66
2021/05/28 10:35:02;;;;;;;12.27;4.90;;;;;;;;;;5003690;28;20029;-65
2021/05/28 10:37:28;;;;;;;10.77;4.10;;;;;;;;;;5013743;28;20073;-66
2021/05/28 10:39:54;;;;;;;7.88;3.35;;;;;;;;;;5023619;28;20021;-65
2021/05/28 10:42:20;;;;;;;13.95;5.10;;;;;;;;;;5010502;28;20607;-66
2021/05/28 10:44:46;;;;;;;9.38;3.78;;;;;;;;;;5012190;28;20017;-65
2021/05/28 10:47:13;;;;;;;11.52;4.18;;;;;;;;;;5025232;28;20053;-66
2021/05/28 10:49:43;;;;;;;11.02;4.82;;;;;;;;;;4971602;28;20038;-65
2021/05/28 10:52:13;;;;;;;9.30;4.00;;;;;;;;;;5027534;28;20146;-66
2021/05/28 10:54:40;;;;;;;10.33;3.80;;;;;;;;;;5025315;28;20083;-66
2021/05/28 10:57:21;;;;;;;9.07;3.65;;;;;;;;;;5020705;28;20052;-66
2021/05/28 10:59:48;;;;;;;10.38;4.15;;;;;;;;;;5022673;28;20017;-64
2021/05/28 11:02:16;;;;;;;8.30;3.50;;;;;;;;;;5021563;28;20024;-66
2021/05/28 11:04:42;;;;;;;7.28;3.00;;;;;;;;;;5024428;28;20029;-66
2021/05/28 11:07:11;;;;;;;9.38;3.65;;;;;;;;;;4998829;28;20050;-66
2021/05/28 11:09:38;;;;;;;9.27;3.10;;;;;;;;;;5021460;28;20052;-66
2021/05/28 11:12:06;;;;;;;8.52;3.88;;;;;;;;;;5023305;28;20304;-68
2021/05/28 11:14:35;;;;;;;8.45;3.72;;;;;;;;;;5010598;28;20022;-65
2021/05/28 11:17:01;;;;;;;9.77;3.53;;;;;;;;;;5025379;28;20049;-66
2021/05/28 11:19:47;;;;;;;9.18;3.90;;;;;;;;;;5024617;28;20049;-66
2021/05/28 11:22:15;;;;;;;8.77;3.45;;;;;;;;;;4961403;28;20066;-67
2021/05/28 11:24:48;;;;;;;6.80;2.90;;;;;;;;;;4963596;28;20611;-65
2021/05/28 11:27:23;;;;;;;9.15;3.45;;;;;;;;;;4962979;28;20077;-67
2021/05/28 11:29:55;;;;;;;8.55;3.20;;;;;;;;;;4966843;28;20015;-65
2021/05/28 11:32:30;;;;;;;7.07;2.97;;;;;;;;;;4967399;28;20074;-66
2021/05/28 11:35:28;;;;;;;6.63;3.15;;;;;;;;;;4970485;28;20038;-66
2021/05/28 11:37:59;;;;;;;8.30;3.50;;;;;;;;;;4928646;28;20048;-66
2021/05/28 11:40:25;;;;;;;10.40;3.90;;;;;;;;;;4969781;28;20178;-63
2021/05/28 11:42:52;;;;;;;8.80;3.90;;;;;;;;;;4970945;28;20161;-63
2021/05/28 11:45:19;;;;;;;8.00;3.70;;;;;;;;;;4953452;28;20379;-63
2021/05/28 11:47:46;;;;;;;8.88;3.15;;;;;;;;;;4971898;28;20034;-63
2021/05/28 11:50:13;;;;;;;7.68;2.75;;;;;;;;;;4972906;28;20034;-64
2021/05/28 11:52:40;;;;;;;9.35;3.10;;;;;;;;;;4967625;28;20049;-64
2021/05/28 11:55:11;;;;;;;6.72;2.35;;;;;;;;;;4952965;28;20046;-65
2021/05/28 11:57:37;;;;;;;5.63;2.10;;;;;;;;;;4944946;28;20391;-64
2021/05/28 12:00:10;;;;;;;7.30;2.53;;;;;;;;;;4997878;28;20034;-64
2021/05/28 12:02:41;;;;;;;9.27;2.92;;;;;;;;;;5015202;28;20424;-67
2021/05/28 12:05:15;;;;;;;8.18;2.90;;;;;;;;;;5020457;28;20068;-65
2021/05/28 12:07:41;;;;;;;7.40;2.50;;;;;;;;;;5019595;28;20017;-65
2021/05/28 12:10:08;;;;;;;5.60;2.40;;;;;;;;;;5027047;28;20029;-65
2021/05/28 12:12:53;;;;;;;5.35;2.00;;;;;;;;;;5007048;28;20493;-64
2021/05/28 12:15:19;;;;;;;5.13;1.90;;;;;;;;;;5021727;28;20040;-64
2021/05/28 12:17:46;;;;;;;5.22;1.83;;;;;;;;;;5024070;28;20465;-65
2021/05/28 12:20:20;;;;;;;5.15;1.98;;;;;;;;;;5027892;28;20072;-65
2021/05/28 12:22:56;;;;;;;5.95;2.30;;;;;;;;;;5028481;28;20052;-64
2021/05/28 12:25:22;;;;;;;4.57;1.90;;;;;;;;;;5030553;28;20063;-65
2021/05/28 12:27:48;;;;;;;8.70;2.30;;;;;;;;;;5023558;28;20026;-66
2021/05/28 12:30:23;;;;;;;5.72;2.10;;;;;;;;;;5026320;28;20374;-65
2021/05/28 12:32:49;;;;;;;6.65;2.28;;;;;;;;;;5022558;28;20034;-65
2021/05/28 12:35:15;;;;;;;5.25;1.83;;;;;;;;;;5018717;28;20165;-65
2021/05/28 12:38:00;;;;;;;5.63;1.67;;;;;;;;;;5028236;28;20433;-65
2021/05/28 12:40:27;;;;;;;4.72;2.08;;;;;;;;;;5022213;28;20620;-66
2021/05/28 12:42:56;;;;;;;5.03;1.70;;;;;;;;;;5024089;28;20156;-66
2021/05/28 12:45:32;;;;;;;5.07;2.15;;;;;;;;;;5024033;28;20036;-65
2021/05/28 12:47:58;;;;;;;5.68;2.10;;;;;;;;;;5021724;28;20471;-65
2021/05/28 12:50:25;;;;;;;6.22;1.92;;;;;;;;;;5026452;28;20022;-65
2021/05/28 12:52:55;;;;;;;5.20;1.60;;;;;;;;;;5014606;28;20049;-65
2021/05/28 12:55:22;;;;;;;;;;;;;;;;;;5019456;28;20124;-65
2021/05/28 12:57:48;;;;;;;5.00;1.60;;;;;;;;;;5019333;28;19910;-64
2021/05/28 13:00:14;;;;;;;4.53;1.75;;;;;;;;;;5015060;28;20084;-64
2021/05/28 13:02:40;;;;;;;4.75;1.80;;;;;;;;;;5019763;28;20028;-65
2021/05/28 13:05:12;;;;;;;5.05;2.00;;;;;;;;;;5012996;28;20088;-65
2021/05/28 13:07:39;;;;;;;5.40;2.17;;;;;;;;;;5023668;28;20049;-65
2021/05/28 13:10:22;;;;;;;5.65;1.85;;;;;;;;;;5000216;28;20077;-65
2021/05/28 13:12:48;;;;;;;5.00;1.77;;;;;;;;;;5022358;28;20474;-64
2021/05/28 13:15:19;;;;;;;4.97;1.73;;;;;;;;;;5015108;28;20022;-64
2021/05/28 13:17:52;;;;;;;5.05;1.95;;;;;;;;;;5014484;28;20473;-64
2021/05/28 13:20:18;;;;;;;5.65;1.75;;;;;;;;;;5027604;28;20029;-65
2021/05/28 13:22:44;;;;;;;5.35;1.70;;;;;;;;;;5019231;28;20457;-64
2021/05/28 13:25:16;;;;;;;4.57;1.75;;;;;;;;;;5020957;28;20381;-65
2021/05/28 13:27:43;;;;;;;5.82;1.85;;;;;;;;;;5016972;28;20021;-65
2021/05/28 13:30:10;;;;;;;4.85;1.60;;;;;;;;;;5020375;28;20025;-65
2021/05/28 13:32:41;;;;;;;4.97;1.88;;;;;;;;;;5017015;28;20038;-65
2021/05/28 13:35:09;;;;;;;6.05;2.20;;;;;;;;;;5010860;28;20095;-65
2021/05/28 13:37:35;;;;;;;5.03;1.80;;;;;;;;;;5014653;28;20469;-65
2021/05/28 13:40:02;;;;;;;5.47;2.20;;;;;;;;;;5019990;28;20037;-65
2021/05/28 13:42:28;;;;;;;5.38;2.00;;;;;;;;;;5017354;28;20030;-65
2021/05/28 13:44:58;;;;;;;6.70;2.08;;;;;;;;;;5016983;28;20018;-64
2021/05/28 13:47:24;;;;;;;5.68;2.00;;;;;;;;;;5010028;28;20030;-65
2021/05/28 13:49:51;;;;;;;4.60;1.63;;;;;;;;;;5022587;28;20478;-64
2021/05/28 13:52:17;;;;;;;5.30;2.03;;;;;;;;;;5016908;28;20724;-64
2021/05/28 13:54:43;;;;;;;4.60;1.80;;;;;;;;;;5010036;28;20046;-64
2021/05/28 13:57:09;;;;;;;5.35;2.00;;;;;;;;;;5020543;28;20061;-64
2021/05/28 13:59:36;;;;;;;4.53;1.77;;;;;;;;;;5018709;28;20034;-64
2021/05/28 14:02:03;;;;;;;5.97;1.90;;;;;;;;;;5013488;28;20017;-63
2021/05/28 14:04:29;;;;;;;4.38;1.75;;;;;;;;;;5015925;28;20018;-63
2021/05/28 14:06:55;;;;;;;5.00;1.60;;;;;;;;;;5023888;28;20469;-63
2021/05/28 14:09:21;;;;;;;5.00;1.98;;;;;;;;;;5020788;28;20504;-64
2021/05/28 14:11:48;;;;;;;5.22;1.70;;;;;;;;;;5013821;28;20037;-63
2021/05/28 14:14:14;;;;;;;5.82;1.70;;;;;;;;;;5019317;28;20025;-64
2021/05/28 14:16:40;;;;;;;4.68;1.67;;;;;;;;;;5023349;28;20086;-64
2021/05/28 14:19:06;;;;;;;4.68;1.75;;;;;;;;;;5028468;28;20083;-64
2021/05/28 14:21:32;;;;;;;6.38;2.17;;;;;;;;;;5021020;28;20481;-64
2021/05/28 14:23:58;;;;;;;6.75;2.17;;;;;;;;;;5016827;28;20022;-64
2021/05/28 14:26:24;;;;;;;4.90;2.00;;;;;;;;;;5023023;28;20183;-64
2021/05/28 14:28:50;;;;;;;5.38;2.03;;;;;;;;;;5020370;28;20113;-63
2021/05/28 14:31:16;;;;;;;6.53;2.08;;;;;;;;;;5010605;28;20038;-64